Terminal Aerodrome Forecast
Issued by NWS

Home | Current Version | Previous Version | Text Only | Print | Product List | Glossary On
Versions: 1 2 3 4 5 6 7 8 9 10 11 12 13 14 15
000
FTUS42 KILM 012300
TAFCRE
TAF
KCRE 012330Z 0200/0224 19011KT P6SM FEW020 FEW050 SCT100
     FM020200 22005KT P6SM FEW015 SCT050
      TEMPO 0209/0212 5SM BR
     FM021400 26009KT P6SM SCT020 SCT050 SCT120
     FM021900 21014G18KT P6SM VCSH SCT050=

USA.gov is the U.S. government's official web portal to all federal, state and local government web resources and services.